Latest Weather Observations for Oodnadatta

IDS60801

Issued at 3:21 am CST Friday 19 August 2022 (issued every 10 minutes, with the page automatically refreshed every 10 minutes)

About weather observations | Map of weather stations | Latest weather observations for SA | Other Formats
Station Details ID: 017043 Name: OODNADATTA AIRPORT Lat: -27.56 Lon: 135.45 Height: 116.5 m
Data from the previous 72 hours. | See also: Recent months at Oodnadatta
Date/Time
CST
Temp
°C
App
Temp
°C
Dew
Point
°C
Rel
Hum
%
Delta-T
°C
Wind Press
QNH
hPa
Press
MSL
hPa
Rain since
9am
mm
Dir  Spd
km/h
Gust
km/h
Spd
kts
Gust
kts
19/03:00am 8.8 4.8 5.0 77 1.7 WSW 15 19 8 10 1024.5 1024.5 0.0
19/02:30am 9.1 4.7 4.9 75 1.9 SW 17 20 9 11 1024.6 1024.6 0.0
19/02:00am 9.7 5.4 5.3 74 2.0 WSW 17 22 9 12 1024.7 1024.7 0.0
19/01:30am 9.8 6.3 5.6 75 1.9 WSW 13 19 7 10 1024.7 1024.7 0.0
19/01:00am 9.5 6.1 5.7 77 1.7 SW 13 17 7 9 1024.5 1024.5 0.0
19/12:30am 9.8 6.4 5.8 76 1.8 SW 13 17 7 9 1024.3 1024.2 0.0
19/12:00am 10.1 6.8 6.3 77 1.8 SW 13 17 7 9 1024.2 1024.1 0.0
 
Date/Time
CST
Temp
°C
App
Temp
°C
Dew
Point
°C
Rel
Hum
%
Delta-T
°C
Wind Press
QNH
hPa
Press
MSL
hPa
Rain since
9am
mm
Dir  Spd
km/h
Gust
km/h
Spd
kts
Gust
kts
18/11:30pm 10.4 6.0 6.4 76 1.9 SW 19 22 10 12 1024.0 1023.9 0.0
18/11:00pm 10.9 6.3 6.3 73 2.2 SW 20 26 11 14 1024.0 1023.9 0.0
18/10:30pm 11.3 6.6 6.0 70 2.5 SW 20 24 11 13 1023.9 1023.8 0.0
18/10:00pm 11.8 5.2 5.9 67 2.8 SW 30 39 16 21 1023.7 1023.6 0.0
18/09:30pm 12.2 5.1 6.3 67 2.8 SW 33 44 18 24 1023.1 1023.0 0.0
18/09:00pm 12.6 3.9 6.0 64 3.1 SW 41 52 22 28 1022.4 1022.3 0.0
18/08:30pm 13.0 4.8 6.6 65 3.1 SW 39 52 21 28 1021.8 1021.7 0.0
18/08:00pm 13.6 5.2 7.4 66 3.1 SW 41 57 22 31 1021.6 1021.5 0.0
18/07:49pm 13.9 4.3 7.9 67 3.0 SW 48 67 26 36 1021.4 1021.3 0.0
18/07:30pm 14.0 3.7 8.2 68 2.9 SW 52 65 28 35 1020.8 1020.7 0.0
18/07:02pm 14.6 4.5 8.8 68 3.0 WSW 52 70 28 38 1020.4 1020.3 0.0
18/07:00pm 14.6 4.1 8.8 68 3.0 WSW 54 70 29 38 1020.2 1020.1 0.0
18/06:32pm 15.4 4.7 7.9 61 3.8 SW 54 72 29 39 1019.6 1019.5 0.0
18/06:30pm 15.4 4.7 7.9 61 3.8 SW 54 69 29 37 1019.5 1019.4 0.0
18/06:09pm 15.9 4.2 7.9 59 4.0 WSW 59 78 32 42 1018.9 1018.9 0.0
18/06:00pm 15.8 3.3 7.8 59 4.0 WSW 63 78 34 42 1018.4 1018.4 0.0
18/05:30pm 17.8 6.2 9.9 60 4.2 WSW 61 82 33 44 1017.3 1017.3 0.0
18/05:16pm 19.5 8.3 11.3 59 4.5 WSW 61 80 33 43 1016.8 1016.7 0.0
18/05:10pm 19.5 8.6 11.0 58 4.7 WSW 59 78 32 42 1016.4 1016.3 0.0
18/05:00pm 19.9 11.3 11.7 59 4.6 W 48 76 26 41 1016.1 1016.0 0.0
18/04:55pm 21.3 13.4 9.5 47 6.4 W 41 70 22 38 1015.8 1015.7 0.0
18/04:30pm 24.4 18.3 6.6 32 9.3 W 28 37 15 20 1014.9 1014.8 0.0
18/04:00pm 24.8 17.9 6.5 31 9.5 W 32 44 17 24 1014.3 1014.2 0.0
18/03:30pm 24.7 19.3 6.4 31 9.5 WSW 24 33 13 18 1013.8 1013.7 0.0
18/03:00pm 25.5 18.9 6.2 29 10.0 WSW 30 41 16 22 1013.7 1013.6 0.0
18/02:30pm 25.1 19.8 4.8 27 10.3 SW 22 35 12 19 1013.4 1013.3 0.0
18/02:00pm 25.4 19.5 5.6 28 10.2 SW 26 35 14 19 1013.4 1013.3 0.0
18/01:30pm 24.3 18.3 5.1 29 9.7 SW 26 37 14 20 1013.2 1013.1 0.0
18/01:00pm 24.4 18.9 5.7 30 9.6 SSW 24 33 13 18 1013.2 1013.1 0.0
18/12:30pm 24.0 18.1 5.8 31 9.3 SW 26 33 14 18 1013.5 1013.4 0.0
18/12:00pm 22.6 17.1 6.0 34 8.4 SW 24 37 13 20 1013.9 1013.8 0.0
18/11:30am 22.0 16.4 7.0 38 7.7 SSW 26 33 14 18 1014.2 1014.1 0.0
18/11:00am 21.7 16.8 8.6 43 7.0 S 24 32 13 17 1014.4 1014.3 0.0
18/10:30am 19.6 14.7 8.6 49 5.8 S 24 33 13 18 1014.2 1014.1 0.0
18/10:00am 18.9 13.7 8.8 52 5.3 SSW 26 32 14 17 1014.4 1014.3 0.0
18/09:30am 17.8 13.1 9.4 58 4.4 SSW 24 30 13 16 1014.2 1014.1 0.0
18/09:00am 16.8 12.8 9.2 61 4.0 SSW 20 28 11 15 1014.1 1014.0 0.0
18/08:30am 15.5 11.7 9.2 66 3.3 SW 19 24 10 13 1014.0 1013.9 0.0
18/08:00am 13.9 12.6 4.2 52 4.5 CALM 0 6 0 3 1013.8 1013.7 0.0
18/07:30am 12.4 9.3 1.4 47 4.7 WNW 7 9 4 5 1013.4 1013.3 0.0
18/07:00am 11.6 7.6 -2.2 38 5.4 WNW 9 11 5 6 1013.4 1013.3 0.0
18/06:30am 11.3 6.9 -2.8 37 5.4 NW 11 13 6 7 1013.2 1013.1 0.0
18/06:00am 13.1 9.1 -2.4 34 6.1 NE 9 11 5 6 1012.8 1012.7 0.0
18/05:30am 13.1 8.7 -2.8 33 6.2 NNW 11 13 6 7 1012.8 1012.7 0.0
18/05:00am 14.3 8.7 -2.6 31 6.7 W 17 28 9 15 1013.2 1013.1 0.0
18/04:34am 14.6 7.0 -2.3 31 6.8 W 28 50 15 27 1012.8 1012.7 0.0
18/04:30am 14.3 7.5 -2.1 32 6.6 WNW 24 50 13 27 1012.8 1012.7 0.0
18/04:28am 13.7 7.7 -1.9 34 6.3 NW 20 44 11 24 1012.8 1012.7 0.0
18/04:00am 14.4 8.6 -1.6 33 6.5 N 19 24 10 13 1011.6 1011.5 0.0
18/03:30am 15.0 8.2 -1.5 32 6.8 N 24 30 13 16 1011.8 1011.7 0.0
18/03:00am 15.7 8.6 -1.4 31 7.1 N 26 32 14 17 1012.1 1012.0 0.0
18/02:30am 15.6 9.2 -1.4 31 7.1 N 22 28 12 15 1012.4 1012.3 0.0
18/02:00am 16.3 9.6 -1.3 30 7.4 NNE 24 30 13 16 1012.7 1012.6 0.0
18/01:30am 16.6 9.5 -1.5 29 7.6 NNE 26 35 14 19 1012.8 1012.7 0.0
18/01:00am 16.8 9.6 -1.8 28 7.7 NNE 26 32 14 17 1013.3 1013.2 0.0
18/12:30am 17.3 10.9 -1.9 27 8.0 NNE 22 28 12 15 1013.8 1013.7 0.0
18/12:00am 17.6 11.5 -2.1 26 8.2 NE 20 30 11 16 1013.9 1013.8 0.0
 
Date/Time
CST
Temp
°C
App
Temp
°C
Dew
Point
°C
Rel
Hum
%
Delta-T
°C
Wind Press
QNH
hPa
Press
MSL
hPa
Rain since
9am
mm
Dir  Spd
km/h
Gust
km/h
Spd
kts
Gust
kts
17/11:30pm 18.5 12.1 -1.9 25 8.6 NE 22 30 12 16 1014.1 1014.0 0.0
17/11:00pm 18.1 11.6 -2.2 25 8.5 NE 22 30 12 16 1014.3 1014.2 0.0
17/10:30pm 18.6 11.7 -2.3 24 8.7 NE 24 32 13 17 1014.5 1014.4 0.0
17/10:00pm 19.3 12.8 -2.3 23 9.1 NE 22 28 12 15 1015.1 1015.0 0.0
17/09:30pm 19.6 12.8 -2.1 23 9.2 NE 24 30 13 16 1015.0 1014.9 0.0
17/09:00pm 20.2 13.0 -2.2 22 9.5 NNE 26 32 14 17 1015.1 1015.0 0.0
17/08:30pm 20.1 13.2 -2.3 22 9.5 NE 24 33 13 18 1015.2 1015.1 0.0
17/08:00pm 20.3 13.8 -2.1 22 9.6 NNE 22 26 12 14 1015.4 1015.3 0.0
17/07:30pm 20.7 14.2 -2.4 21 9.8 NNE 22 28 12 15 1015.1 1015.0 0.0
17/07:00pm 21.4 15.5 -2.5 20 10.2 NNE 19 22 10 12 1015.1 1015.0 0.0
17/06:30pm 22.8 16.4 -2.0 19 10.8 NNE 22 26 12 14 1014.9 1014.8 0.0
17/06:00pm 23.8 16.5 -2.7 17 11.5 NNE 26 35 14 19 1014.7 1014.6 0.0
17/05:30pm 24.8 16.9 -1.9 17 11.9 NNE 30 39 16 21 1014.9 1014.8 0.0
17/05:00pm 25.3 16.9 -2.3 16 12.3 NNE 32 43 17 23 1014.7 1014.6 0.0
17/04:30pm 25.5 17.0 -2.1 16 12.3 NNE 33 43 18 23 1014.7 1014.6 0.0
17/04:00pm 25.5 16.6 -2.1 16 12.3 NNE 35 46 19 25 1014.9 1014.8 0.0
17/03:30pm 25.6 16.8 -1.2 17 12.2 NNE 35 52 19 28 1015.2 1015.1 0.0
17/03:00pm 25.5 16.7 -1.3 17 12.1 NNE 35 44 19 24 1015.7 1015.6 0.0
17/02:30pm 25.2 16.6 0.0 19 11.7 NNE 35 50 19 27 1016.1 1016.0 0.0
17/02:00pm 24.5 16.2 -0.6 19 11.4 NNE 33 44 18 24 1016.5 1016.4 0.0
17/01:30pm 23.6 15.1 0.7 22 10.6 NNE 35 44 19 24 1017.0 1016.9 0.0
17/01:00pm 23.5 15.0 0.6 22 10.6 NNE 35 46 19 25 1018.0 1018.0 0.0
17/12:30pm 22.1 13.7 1.7 26 9.5 NNE 35 44 19 24 1018.5 1018.5 0.0
17/12:00pm 21.4 13.6 2.6 29 8.9 NNE 33 43 18 23 1019.6 1019.5 0.0
17/11:30am 20.8 13.1 3.5 32 8.3 NNE 33 43 18 23 1020.2 1020.1 0.0
17/11:00am 19.6 11.5 3.3 34 7.7 N 35 44 19 24 1020.8 1020.7 0.0
17/10:30am 18.7 11.6 3.7 37 7.1 N 30 43 16 23 1021.4 1021.3 0.0
17/10:00am 17.5 10.6 4.8 43 6.1 N 30 39 16 21 1021.5 1021.4 0.0
17/09:30am 16.5 9.7 5.2 47 5.4 NNE 30 39 16 21 1021.8 1021.7 0.0
17/09:00am 14.9 8.9 5.1 52 4.6 NE 26 33 14 18 1021.9 1021.8 0.0
17/08:30am 12.8 8.4 5.0 59 3.6 NNE 17 24 9 13 1021.7 1021.6 0.0
17/08:00am 10.1 5.9 4.0 66 2.7 NNE 15 20 8 11 1021.4 1021.3 0.0
17/07:30am 8.5 6.0 3.6 71 2.1 NE 6 9 3 5 1021.4 1021.3 0.0
17/07:00am 7.9 5.4 3.6 74 1.9 NNW 6 7 3 4 1021.2 1021.1 0.0
17/06:30am 8.3 5.1 3.2 70 2.2 NNE 9 13 5 7 1020.8 1020.7 0.0
17/06:00am 8.8 5.3 3.4 69 2.3 NNE 11 15 6 8 1020.2 1020.1 0.0
17/05:30am 9.5 5.0 4.1 69 2.4 NE 17 22 9 12 1020.0 1019.9 0.0
17/05:00am 10.0 5.0 4.6 69 2.4 NE 20 24 11 13 1019.5 1019.4 0.0
17/04:30am 10.3 5.5 4.7 68 2.5 NE 19 24 10 13 1019.1 1019.1 0.0
17/04:00am 9.8 5.3 4.4 69 2.4 NE 17 20 9 11 1019.1 1019.1 0.0
17/03:30am 9.4 5.2 4.0 69 2.4 ENE 15 17 8 9 1019.2 1019.2 0.0
17/03:00am 10.0 5.1 4.0 66 2.7 ENE 19 20 10 11 1019.3 1019.3 0.0
17/02:30am 10.8 5.4 4.3 64 2.9 ENE 22 26 12 14 1019.0 1019.0 0.0
17/02:00am 10.6 5.3 3.2 60 3.2 ENE 20 24 11 13 1019.6 1019.5 0.0
17/01:30am 10.4 5.2 2.3 57 3.5 ENE 19 20 10 11 1019.9 1019.8 0.0
17/01:00am 11.0 5.7 2.1 54 3.8 ENE 19 20 10 11 1020.1 1020.0 0.0
17/12:30am 11.3 6.0 2.1 53 3.9 ENE 19 20 10 11 1020.2 1020.1 0.0
17/12:00am 11.6 6.3 2.1 52 4.1 ENE 19 19 10 10 1020.1 1020.0 0.0
 
Date/Time
CST
Temp
°C
App
Temp
°C
Dew
Point
°C
Rel
Hum
%
Delta-T
°C
Wind Press
QNH
hPa
Press
MSL
hPa
Rain since
9am
mm
Dir  Spd
km/h
Gust
km/h
Spd
kts
Gust
kts
16/11:30pm 10.9 6.3 1.4 52 4.0 ENE 15 15 8 8 1020.5 1020.4 0.0
16/11:00pm 11.9 6.9 1.3 48 4.5 ENE 17 19 9 10 1020.6 1020.5 0.0
16/10:30pm 13.6 9.0 1.6 44 5.2 NE 15 17 8 9 1020.8 1020.7 0.0
16/10:00pm 13.2 8.5 1.2 44 5.1 ENE 15 17 8 9 1021.0 1020.9 0.0
16/09:30pm 12.6 8.2 0.4 43 5.1 E 13 15 7 8 1021.4 1021.3 0.0
16/09:00pm 14.6 11.1 1.5 41 5.7 ESE 9 11 5 6 1021.4 1021.3 0.0
16/08:30pm 14.4 10.9 1.0 40 5.8 SE 9 11 5 6 1021.4 1021.3 0.0
16/08:00pm 15.3 12.7 1.1 38 6.2 ESE 4 9 2 5 1021.3 1021.2 0.0
16/07:30pm 16.1 14.3 1.0 36 6.6 CALM 0 0 0 0 1021.1 1021.0 0.0
16/07:00pm 17.6 14.7 1.2 33 7.3 ESE 6 6 3 3 1020.5 1020.4 0.0
16/06:30pm 18.1 15.5 1.2 32 7.5 ESE 4 7 2 4 1020.1 1020.0 0.0
16/06:00pm 19.3 16.2 1.3 30 8.1 NE 7 9 4 5 1020.0 1019.9 0.0
16/05:30pm 19.9 16.8 1.4 29 8.4 E 7 9 4 5 1019.8 1019.7 0.0
16/05:00pm 19.9 16.0 1.4 29 8.4 NNE 11 17 6 9 1019.6 1019.5 0.0
16/04:30pm 20.2 17.2 2.1 30 8.4 SSE 7 13 4 7 1019.7 1019.6 0.0
16/04:00pm 19.9 17.4 1.8 30 8.3 S 4 9 2 5 1019.7 1019.6 0.0
16/03:30pm 20.1 17.2 2.5 31 8.2 SSW 7 13 4 7 1019.9 1019.8 0.0
16/03:00pm 19.8 16.5 2.2 31 8.1 ESE 9 15 5 8 1020.1 1020.0 0.0
16/02:30pm 19.6 16.8 3.3 34 7.7 SSE 7 17 4 9 1020.2 1020.1 0.0
16/02:00pm 18.7 16.1 3.3 36 7.2 S 6 11 3 6 1020.4 1020.3 0.0
16/01:30pm 17.9 14.7 3.0 37 6.9 S 9 20 5 11 1021.0 1020.9 0.0
16/01:00pm 17.7 13.9 3.9 40 6.5 SSE 13 20 7 11 1021.8 1021.7 0.0
16/12:30pm 17.5 13.3 3.8 40 6.4 SSW 15 22 8 12 1022.3 1022.2 0.0
16/12:00pm 17.0 13.5 5.3 46 5.6 SSW 13 17 7 9 1022.9 1022.8 0.0
16/11:30am 16.3 12.6 6.2 51 4.9 S 15 22 8 12 1023.4 1023.3 0.0
16/11:00am 15.5 11.5 6.5 55 4.4 SSE 17 24 9 13 1023.8 1023.7 0.0
16/10:30am 14.5 10.1 6.6 59 3.8 SE 19 26 10 14 1023.8 1023.7 0.0
16/10:00am 13.5 8.5 6.4 62 3.4 S 22 26 12 14 1023.8 1023.7 0.0
16/09:30am 13.1 8.5 6.5 64 3.2 SSE 20 26 11 14 1023.8 1023.7 0.0
16/09:00am 10.6 6.1 4.3 65 2.8 S 17 19 9 10 1023.5 1023.4 0.0
16/08:30am 8.4 4.7 2.4 66 2.5 SSW 11 13 6 7 1023.3 1023.2 0.0
16/08:00am 7.0 3.6 1.9 70 2.1 S 9 11 5 6 1023.0 1022.9 0.0
16/07:30am 5.0 1.0 0.6 73 1.7 SW 11 13 6 7 1022.5 1022.4 0.0
16/07:00am 4.8 1.2 0.4 73 1.7 SW 9 9 5 5 1021.8 1021.7 0.0
16/06:30am 5.0 1.0 0.4 72 1.8 SW 11 13 6 7 1021.3 1021.2 0.0
16/06:00am 5.6 1.6 0.4 69 2.0 SSW 11 13 6 7 1020.9 1020.8 0.0
16/05:30am 5.8 2.2 0.4 68 2.1 SSW 9 9 5 5 1020.4 1020.3 0.0
16/05:00am 6.8 3.2 0.9 66 2.4 SSW 9 9 5 5 1020.2 1020.1 0.0
16/04:30am 6.8 3.6 0.5 64 2.5 W 7 9 4 5 1020.3 1020.2 0.0
16/04:00am 7.6 4.0 0.8 62 2.7 SSW 9 9 5 5 1020.4 1020.3 0.0
16/03:30am 7.6 4.0 0.6 61 2.8 SSW 9 13 5 7 1020.4 1020.3 0.0

Other formats

Comma delimited format used in spreadsheet applications
http://www.bom.gov.au/fwo/IDS60801/IDS60801.94476.axf

JavaScript Object Notation format (JSON) in row-major order
http://www.bom.gov.au/fwo/IDS60801/IDS60801.94476.json

Data quality

Most of these data are generated automatically and are frequently updated. Quality checks on data are not normally performed. It is possible for incorrect values to appear. Refer to information at About Latest Weather Observations and please check the disclaimer before using these data.